SR9NCI Weather Reports


time (UTC)temp
C
wind
direction
speed
KPH
gust
KPH
rain 1hr
cm
rain 24hr
cm
rain mn
cm
humidity
%
barometer
mb
20220524022954 16 131 9.7 17.7 0.00 0.00 0.00
20220524022552 16 132 12.9 16.1 0.00 0.00 0.00
20220524022151 16 140 9.7 17.7 0.00 0.00 0.00
20220524021748 16 139 12.9 19.3 0.00 0.00 0.00
20220524021350 16 136 8.0 12.9 0.00 0.00 0.00
20220524020945 16 138 14.5 20.9 0.00 0.00 0.00
20220524020537 16 134 11.3 17.7 0.00 0.00 0.00
20220524020134 16 134 8.0 14.5 0.00 0.00 0.00
20220524015733 16 127 9.7 16.1 0.00 0.00 0.00
20220524014929 16 127 9.7 16.1 0.00 0.00 0.00
20220524014527 16 123 9.7 16.1 0.00 0.00 0.00
20220524013725 16 123 8.0 14.5 0.00 0.00 0.00
20220524013324 16 125 4.8 8.0 0.00 0.00 0.00
20220524012921 16 135 4.8 6.4 0.00 0.00 0.00
20220524012513 16 137 6.4 9.7 0.00 0.00 0.00
20220524012111 16 120 4.8 8.0 0.00 0.00 0.00
20220524011710 16 126 6.4 12.9 0.00 0.00 0.00
20220524011309 16 140 4.8 11.3 0.00 0.00 0.00
20220524010906 17 146 4.8 9.7 0.00 0.00 0.00
20220524010504 16 156 6.4 11.3 0.00 0.00 0.00
20220524010103 16 129 3.2 6.4 0.00 0.00 0.00
20220524005259 16 133 1.6 6.4 0.00 0.00 0.00
20220524004931 16 153 3.2 4.8 0.00 0.00 0.00
20220524004857 16 153 3.2 4.8 0.00 0.00 0.00
20220524004449 16 159 3.2 6.4 0.00 0.00 0.00
20220524004048 16 137 3.2 4.8 0.00 0.00 0.00
20220524003645 16 112 4.8 8.0 0.00 0.00 0.00
20220524003245 16 153 3.2 4.8 0.00 0.00 0.00
20220524002843 16 169 3.2 6.4 0.00 0.00 0.00
20220524002442 16 185 3.2 6.4 0.00 0.00 0.00
20220524002039 16 163 3.2 6.4 0.00 0.00 0.00
20220524001638 16 122 4.8 8.0 0.00 0.00 0.00
20220524001237 16 109 6.4 9.7 0.00 0.00 0.00
20220524000835 16 112 8.0 16.1 0.00 0.00 0.00
20220524000427 16 113 4.8 9.7 0.00 0.00 0.00
20220524000029 16 131 6.4 11.3 0.00 0.00 0.00
20220523235623 15 109 4.8 11.3 0.00 0.00 0.00
20220523235338 15 111 1.6 4.8 0.00 0.00 0.00
20220523235222 15 111 1.6 4.8 0.00 0.00 0.00
20220523234820 15 150 0.0 1.6 0.00 0.00 0.00
20220523234418 15 174 1.6 8.0 0.00 0.00 0.00
20220523234016 16 136 4.8 6.4 0.00 0.00 0.00
20220523233615 16 143 4.8 8.0 0.00 0.00 0.00
20220523233214 16 120 4.8 8.0 0.00 0.00 0.00
20220523232813 15 127 6.4 11.3 0.00 0.00 0.00
20220523232001 15 116 4.8 8.0 0.00 0.00 0.00
20220523231600 15 114 4.8 8.0 0.00 0.00 0.00
20220523231200 15 117 4.8 9.7 0.00 0.00 0.00
20220523230355 15 129 4.8 8.0 0.00 0.00 0.00
20220523225552 16 130 8.0 12.9 0.00 0.00 0.00
20220523225150 16 123 8.0 17.7 0.00 0.00 0.00
20220523224748 16 132 8.0 11.3 0.00 0.00 0.00
20220523223938 16 132 8.0 14.5 0.00 0.00 0.00
20220523223536 16 126 6.4 9.7 0.00 0.00 0.00
20220523223134 16 120 6.4 11.3 0.00 0.00 0.00
20220523222733 16 121 6.4 8.0 0.00 0.00 0.00
20220523221931 16 117 6.4 9.7 0.00 0.00 0.00
20220523221528 16 125 6.4 9.7 0.00 0.00 0.00
20220523221127 16 120 6.4 9.7 0.00 0.00 0.00
20220523220725 16 116 6.4 9.7 0.00 0.00 0.00
20220523220316 16 120 6.4 9.7 0.00 0.00 0.00
20220523215914 16 122 6.4 11.3 0.00 0.00 0.00
20220523215511 16 119 8.0 11.3 0.00 0.00 0.00
20220523215110 16 121 8.0 11.3 0.00 0.00 0.00
20220523214708 16 125 8.0 16.1 0.00 0.00 0.00
20220523214306 16 122 8.0 12.9 0.00 0.00 0.00
20220523213904 16 126 9.7 14.5 0.00 0.00 0.00
20220523213503 16 123 11.3 16.1 0.00 0.00 0.00
20220523213101 16 113 11.3 16.1 0.00 0.00 0.00
20220523212658 16 119 11.3 14.5 0.00 0.00 0.00
20220523212252 16 113 11.3 16.1 0.00 0.00 0.00
20220523211848 16 115 9.7 22.5 0.00 0.00 0.00
20220523211447 16 115 9.7 14.5 0.00 0.00 0.00
20220523211045 16 121 12.9 19.3 0.00 0.00 0.00
20220523210643 16 124 9.7 16.1 0.00 0.00 0.00
20220523210244 16 127 9.7 14.5 0.00 0.00 0.00
20220523205438 16 126 11.3 16.1 0.00 0.00 0.00
20220523205037 16 117 6.4 8.0 0.00 0.00 0.00
20220523204635 16 116 6.4 8.0 0.00 0.00 0.00
20220523204227 16 112 6.4 11.3 0.00 0.00 0.00
20220523203825 16 112 6.4 11.3 0.00 0.00 0.00
20220523203423 15 108 8.0 14.5 0.00 0.00 0.00
20220523203022 16 110 9.7 16.1 0.00 0.00 0.00
20220523202620 15 106 8.0 12.9 0.00 0.00 0.00
20220523202219 16 108 6.4 11.3 0.00 0.00 0.00
20220523201816 15 106 8.0 12.9 0.00 0.00 0.00
20220523201417 16 108 6.4 11.3 0.00 0.00 0.00
20220523201014 16 108 6.4 9.7 0.00 0.00 0.00
20220523200612 16 102 9.7 12.9 0.00 0.00 0.00
20220523195801 15 96 8.0 11.3 0.00 0.00 0.00
20220523195400 15 90 8.0 9.7 0.00 0.00 0.00
20220523194959 15 90 8.0 11.3 0.00 0.00 0.00
20220523194556 15 87 8.0 11.3 0.00 0.00 0.00
20220523194155 15 90 8.0 11.3 0.00 0.00 0.00
20220523193754 15 88 8.0 11.3 0.00 0.00 0.00
20220523193353 15 90 8.0 11.3 0.00 0.00 0.00
20220523192952 15 81 9.7 12.9 0.00 0.00 0.00
20220523192549 15 81 9.7 12.9 0.00 0.00 0.00
20220523192141 15 71 11.3 14.5 0.00 0.00 0.00
20220523191739 15 67 11.3 14.5 0.00 0.00 0.00
20220523191338 15 70 12.9 16.1 0.00 0.00 0.00
20220523190936 15 67 12.9 16.1 0.00 0.00 0.00
20220523190536 15 62 11.3 16.1 0.00 0.00 0.00
20220523190133 15 63 9.7 14.5 0.00 0.00 0.00
20220523185731 15 61 9.7 16.1 0.00 0.00 0.00
20220523185329 15 58 12.9 14.5 0.00 0.00 0.00
20220523184526 15 62 9.7 14.5 0.00 0.00 0.00
20220523184118 15 59 9.7 12.9 0.00 0.00 0.00
20220523183715 15 55 9.7 14.5 0.00 0.00 0.00
20220523183314 16 56 8.0 14.5 0.00 0.00 0.00
20220523182913 16 60 6.4 12.9 0.00 0.00 0.00
20220523182511 16 39 9.7 14.5 0.00 0.00 0.00
20220523182110 16 36 9.7 12.9 0.00 0.00 0.00
20220523181707 16 53 8.0 12.9 0.00 0.00 0.00
20220523181306 16 57 8.0 14.5 0.00 0.00 0.00
20220523180905 16 53 6.4 9.7 0.00 0.00 0.00
20220523180504 16 49 8.0 12.9 0.00 0.00 0.00
20220523180055 16 60 9.7 14.5 0.00 0.00 0.00
20220523175655 17 59 8.0 12.9 0.00 0.00 0.00
20220523175251 17 47 9.7 16.1 0.00 0.00 0.00
20220523174850 17 37 12.9 16.1 0.00 0.00 0.00
20220523174446 17 42 11.3 16.1 0.00 0.00 0.00
20220523174045 17 49 9.7 14.5 0.00 0.00 0.00
20220523173643 17 54 11.3 16.1 0.00 0.00 0.00
20220523173242 17 44 12.9 19.3 0.00 0.00 0.00
20220523172839 17 50 11.3 16.1 0.00 0.00 0.00
20220523172438 17 40 8.0 14.5 0.00 0.00 0.00
20220523171627 17 49 11.3 16.1 0.00 0.00 0.00
20220523171226 17 56 9.7 14.5 0.00 0.00 0.00
20220523170824 17 52 9.7 14.5 0.00 0.00 0.00
20220523170422 17 53 11.3 16.1 0.00 0.00 0.00
20220523165620 17 61 12.9 20.9 0.00 0.00 0.00
20220523165218 18 43 14.5 22.5 0.00 0.00 0.00
20220523164816 18 48 11.3 16.1 0.00 0.00 0.00
20220523164414 18 42 11.3 17.7 0.00 0.00 0.00
20220523164011 18 50 16.1 22.5 0.00 0.00 0.00
20220523163603 18 51 12.9 17.7 0.00 0.00 0.00
20220523163202 18 64 9.7 16.1 0.00 0.00 0.00
20220523162801 18 67 12.9 16.1 0.00 0.00 0.00
20220523162400 19 63 11.3 19.3 0.00 0.00 0.00
20220523161957 19 84 11.3 14.5 0.00 0.00 0.00
20220523161556 19 51 11.3 19.3 0.00 0.00 0.00
20220523161155 18 59 12.9 17.7 0.00 0.00 0.00
20220523160754 18 59 11.3 16.1 0.00 0.00 0.00
20220523160352 19 56 9.7 14.5 0.00 0.00 0.00
20220523155943 19 53 12.9 19.3 0.00 0.00 0.00
20220523155546 19 54 12.9 24.1 0.00 0.00 0.00
20220523155140 20 68 11.3 16.1 0.00 0.00 0.00
20220523154740 20 56 9.7 14.5 0.00 0.00 0.00
20220523154336 20 45 12.9 17.7 0.00 0.00 0.00
20220523153934 20 53 11.3 17.7 0.00 0.00 0.00
20220523153533 19 46 12.9 16.1 0.00 0.00 0.00
20220523153132 19 69 11.3 17.7 0.00 0.00 0.00
20220523152730 20 47 11.3 14.5 0.00 0.00 0.00
20220523152328 19 60 11.3 17.7 0.00 0.00 0.00
20220523151920 19 63 12.9 16.1 0.00 0.00 0.00
20220523151518 20 60 8.0 12.9 0.00 0.00 0.00
20220523151116 18 67 6.4 12.9 0.00 0.00 0.00
20220523150715 18 68 12.9 16.1 0.00 0.00 0.00
20220523150405 20 75 6.4 11.3 0.00 0.00 0.00
20220523150313 20 75 6.4 11.3 0.00 0.00 0.00
20220523145912 20 45 6.4 11.3 0.00 0.00 0.00
20220523145510 20 88 11.3 14.5 0.00 0.00 0.00
20220523145112 20 89 9.7 16.1 0.00 0.00 0.00
20220523144707 20 79 11.3 16.1 0.00 0.00 0.00
20220523144305 20 59 11.3 16.1 0.00 0.00 0.00
20220523143900 20 76 9.7 17.7 0.00 0.00 0.00
20220523143454 20 81 11.3 19.3 0.00 0.00 0.00
20220523143053 20 74 14.5 19.3 0.00 0.00 0.00
20220523142652 20 56 8.0 16.1 0.00 0.00 0.00
20220523142250 20 84 12.9 17.7 0.00 0.00 0.00
20220523141848 21 62 9.7 16.1 0.00 0.00 0.00
20220523141446 20 38 12.9 17.7 0.00 0.00 0.00
20220523141047 20 79 12.9 19.3 0.00 0.00 0.00
20220523140644 21 51 8.0 14.5 0.00 0.00 0.00
20220523140241 20 54 11.3 16.1 0.00 0.00 0.00
20220523135836 21 64 3.2 9.7 0.00 0.00 0.00
20220523135431 20 76 8.0 12.9 0.00 0.00 0.00
20220523135030 20 78 6.4 11.3 0.00 0.00 0.00
20220523134629 20 33 9.7 12.9 0.00 0.00 0.00
20220523134226 20 35 6.4 14.5 0.00 0.00 0.00
20220523133825 20 25 11.3 14.5 0.00 0.00 0.00
20220523133423 20 48 8.0 14.5 0.00 0.00 0.00
20220523133022 20 40 8.0 14.5 0.00 0.00 0.00
20220523132620 20 50 9.7 16.1 0.00 0.00 0.00
20220523132218 20 29 11.3 16.1 0.00 0.00 0.00
20220523131810 20 63 12.9 17.7 0.00 0.00 0.00
20220523131409 21 16 9.7 16.1 0.00 0.00 0.00
20220523131006 21 8 6.4 16.1 0.00 0.00 0.00
20220523130608 20 47 12.9 19.3 0.00 0.00 0.00
20220523130204 20 36 4.8 14.5 0.00 0.00 0.00
20220523125803 20 5 12.9 19.3 0.00 0.00 0.00
20220523125403 20 43 8.0 14.5 0.00 0.00 0.00
20220523124959 20 49 6.4 12.9 0.00 0.00 0.00
20220523124558 20 60 4.8 11.3 0.00 0.00 0.00
20220523124156 20 56 11.3 16.1 0.00 0.00 0.00
20220523123748 20 44 11.3 14.5 0.00 0.00 0.00
20220523123345 19 63 11.3 16.1 0.00 0.00 0.00
20220523122944 20 26 4.8 11.3 0.00 0.00 0.00
20220523122543 20 39 11.3 17.7 0.00 0.00 0.00
20220523122141 20 42 9.7 14.5 0.00 0.00 0.00
20220523121739 20 51 8.0 12.9 0.00 0.00 0.00
20220523121337 20 68 4.8 9.7 0.00 0.00 0.00
20220523120936 21 89 3.2 9.7 0.00 0.00 0.00
20220523120535 20 51 8.0 12.9 0.00 0.00 0.00
20220523120132 20 350 6.4 9.7 0.00 0.00 0.00
20220523115756 20 0 4.8 9.7 0.00 0.00 0.00
20220523115724 20 0 4.8 9.7 0.00 0.00 0.00
20220523115322 20 14 6.4 14.5 0.00 0.00 0.00
20220523114921 20 37 8.0 16.1 0.00 0.00 0.00
20220523114519 20 27 4.8 9.7 0.00 0.00 0.00
20220523113718 20 2 6.4 9.7 0.00 0.00 0.00
20220523113314 20 11 3.2 8.0 0.00 0.00 0.00
20220523112913 20 82 6.4 12.9 0.00 0.00 0.00
20220523112633 19 75 6.4 12.9 0.00 0.00 0.00
20220523112511 19 75 6.4 12.9 0.00 0.00 0.00
20220523112109 18 71 8.0 12.9 0.00 0.00 0.00
20220523111701 19 74 11.3 14.5 0.00 0.00 0.00
20220523111300 19 79 6.4 11.3 0.00 0.00 0.00
20220523110857 18 76 12.9 16.1 0.00 0.00 0.00
20220523110457 20 37 6.4 12.9 0.00 0.00 0.00
20220523110054 19 7 3.2 6.4 0.00 0.00 0.00
20220523105654 20 62 9.7 17.7 0.00 0.00 0.00
20220523105251 19 20 12.9 19.3 0.00 0.00 0.00
20220523104849 20 62 4.8 9.7 0.00 0.00 0.00
20220523104449 18 16 4.8 11.3 0.00 0.00 0.00
20220523104047 19 63 8.0 14.5 0.00 0.00 0.00
20220523103637 20 23 4.8 11.3 0.00 0.00 0.00
20220523103320 20 305 1.6 4.8 0.00 0.00 0.00
20220523103241 20 305 1.6 4.8 0.00 0.00 0.00
20220523102834 20 40 1.6 6.4 0.00 0.00 0.00
20220523102433 19 84 9.7 14.5 0.00 0.00 0.00
20220523102035 19 82 3.2 6.4 0.00 0.00 0.00
20220523101632 20 42 3.2 8.0 0.00 0.00 0.00
20220523101226 19 69 3.2 6.4 0.00 0.00 0.00
20220523100825 18 62 11.3 16.1 0.00 0.00 0.00
20220523100425 20 51 9.7 14.5 0.00 0.00 0.00
20220523100021 20 106 6.4 11.3 0.00 0.00 0.00
20220523095613 18 74 4.8 9.7 0.00 0.00 0.00
20220523095211 18 2 4.8 8.0 0.00 0.00 0.00
20220523094810 18 0 4.8 8.0 0.00 0.00 0.00
20220523094410 18 8 4.8 9.7 0.00 0.00 0.00
20220523094008 18 54 4.8 9.7 0.00 0.00 0.00
20220523093605 17 55 11.3 16.1 0.00 0.00 0.00
20220523093203 18 64 4.8 14.5 0.00 0.00 0.00
20220523092801 18 14 1.6 6.4 0.00 0.00 0.00
20220523092403 18 72 8.0 14.5 0.00 0.00 0.00
20220523091958 19 101 6.4 11.3 0.00 0.00 0.00
20220523091550 18 50 8.0 14.5 0.00 0.00 0.00
20220523091148 19 134 4.8 9.7 0.00 0.00 0.00
20220523090746 18 139 4.8 11.3 0.00 0.00 0.00
20220523090345 18 53 4.8 11.3 0.00 0.00 0.00
20220523085943 17 85 6.4 11.3 0.00 0.00 0.00
20220523085542 18 100 8.0 12.9 0.00 0.00 0.00
20220523085139 17 68 6.4 9.7 0.00 0.00 0.00
20220523084738 17 45 4.8 9.7 0.00 0.00 0.00
20220523084337 17 57 3.2 6.4 0.00 0.00 0.00
20220523083940 17 43 4.8 11.3 0.00 0.00 0.00
20220523083526 17 333 3.2 6.4 0.00 0.00 0.00
20220523083124 17 13 8.0 14.5 0.00 0.00 0.00
20220523082724 17 0 8.0 14.5 0.00 0.00 0.00
20220523082322 17 336 4.8 9.7 0.00 0.00 0.00
20220523081919 17 339 4.8 6.4 0.00 0.00 0.00
20220523081519 17 0 4.8 11.3 0.00 0.00 0.00
20220523081116 18 64 3.2 8.0 0.00 0.00 0.00
20220523080715 18 65 3.2 12.9 0.00 0.00 0.00
20220523075911 18 95 4.8 6.4 0.00 0.00 0.00
20220523075503 18 100 8.0 12.9 0.00 0.00 0.00
20220523075101 18 175 4.8 8.0 0.00 0.00 0.00
20220523074702 18 106 4.8 6.4 0.00 0.00 0.00
20220523074258 16 48 9.7 16.1 0.00 0.00 0.00
20220523073857 17 101 8.0 14.5 0.00 0.00 0.00
20220523073458 17 87 4.8 6.4 0.00 0.00 0.00
20220523073455 17 87 4.8 6.4 0.00 0.00 0.00
20220523073054 20 61 8.0 11.3 0.00 0.00 0.00
20220523072651 22 103 6.4 9.7 0.00 0.00 0.00
20220523072252 19 77 12.9 16.1 0.00 0.00 0.00
20220523071856 21 79 4.8 8.0 0.00 0.00 0.00
20220523071441 21 62 6.4 11.3 0.00 0.00 0.00
20220523071037 18 95 8.0 11.3 0.00 0.00 0.00
20220523070636 18 109 6.4 9.7 0.00 0.00 0.00
20220523070235 18 90 4.8 9.7 0.00 0.00 0.00
20220523065834 18 178 1.6 3.2 0.00 0.00 0.00
20220523065433 18 100 3.2 6.4 0.00 0.00 0.00
20220523065030 20 80 4.8 8.0 0.00 0.00 0.00
20220523064228 20 120 4.8 6.4 0.00 0.00 0.00
20220523063826 17 111 1.6 4.8 0.00 0.00 0.00
20220523063417 18 117 1.6 4.8 0.00 0.00 0.00
20220523063015 18 133 1.6 4.8 0.00 0.00 0.00
20220523062619 18 150 1.6 3.2 0.00 0.00 0.00
20220523062213 17 259 0.0 1.6 0.00 0.00 0.00
20220523061810 17 251 3.2 4.8 0.00 0.00 0.00
20220523061409 18 265 0.0 3.2 0.00 0.00 0.00
20220523061011 18 243 1.6 6.4 0.00 0.00 0.00
20220523060606 18 227 1.6 3.2 0.00 0.00 0.00
20220523060204 18 219 3.2 4.8 0.00 0.00 0.00
20220523055802 18 208 3.2 4.8 0.00 0.00 0.00
20220523055354 17 237 1.6 3.2 0.00 0.00 0.00
20220523054952 16 245 1.6 3.2 0.00 0.00 0.00
20220523054551 18 247 3.2 6.4 0.00 0.00 0.00
20220523054252 17 249 1.6 3.2 0.00 0.00 0.00
20220523054149 17 249 1.6 3.2 0.00 0.00 0.00
20220523053747 17 268 1.6 4.8 0.00 0.00 0.00
20220523053347 15 351 1.6 4.8 0.00 0.00 0.00
20220523052945 16 111 1.6 3.2 0.00 0.00 0.00
20220523052542 16 111 0.0 1.6 0.00 0.00 0.00
20220523052144 16 111 0.0 1.6 0.00 0.00 0.00
20220523051740 16 111 0.0 1.6 0.00 0.00 0.00
20220523051334 15 100 1.6 3.2 0.00 0.00 0.00
20220523050931 16 111 1.6 3.2 0.00 0.00 0.00
20220523050528 16 111 3.2 3.2 0.00 0.00 0.00
20220523050133 15 111 0.0 1.6 0.00 0.00 0.00
20220523050126 15 111 0.0 1.6 0.00 0.00 0.00
20220523045724 13 140 1.6 1.6 0.00 0.00 0.00
20220523045321 13 111 1.6 3.2 0.00 0.00 0.00
20220523044919 12 116 1.6 3.2 0.00 0.00 0.00
20220523044518 13 168 0.0 1.6 0.00 0.00 0.00
20220523044116 14 180 0.0 1.6 0.00 0.00 0.00
20220523043714 14 194 0.0 1.6 0.00 0.00 0.00
20220523043305 14 180 1.6 3.2 0.00 0.00 0.00
20220523042502 13 180 0.0 1.6 0.00 0.00 0.00
20220523042102 13 180 0.0 0.0 0.00 0.00 0.00
20220523041658 12 176 0.0 3.2 0.00 0.00 0.00
20220523041257 11 180 0.0 0.0 0.00 0.00 0.00
20220523040855 11 180 0.0 0.0 0.00 0.00 0.00
20220523040454 11 180 0.0 0.0 0.00 0.00 0.00
20220523040058 11 180 0.0 0.0 0.00 0.00 0.00
20220523035652 11 180 0.0 0.0 0.00 0.00 0.00
20220523035242 10 161 0.0 1.6 0.00 0.00 0.00
20220523034840 9 153 0.0 1.6 0.00 0.00 0.00
20220523034438 9 135 0.0 3.2 0.00 0.00 0.00
20220523034037 8 143 1.6 3.2 0.00 0.00 0.00
20220523033635 8 139 0.0 3.2 0.00 0.00 0.00
20220523033234 8 148 1.6 3.2 0.00 0.00 0.00
20220523032832 8 145 1.6 3.2 0.00 0.00 0.00
20220523032430 8 138 1.6 3.2 0.00 0.00 0.00
20220523032029 7 157 0.0 1.6 0.00 0.00 0.00
20220523031627 7 157 0.0 0.0 0.00 0.00 0.00
20220523031219 7 157 0.0 0.0 0.00 0.00 0.00
20220523030816 7 157 0.0 0.0 0.00 0.00 0.00
20220523030415 7 157 0.0 1.6 0.00 0.00 0.00
20220523030014 7 157 0.0 0.0 0.00 0.00 0.00
20220523025612 8 157 0.0 0.0 0.00 0.00 0.00
20220523025210 8 157 0.0 1.6 0.00 0.00 0.00
20220523024808 7 157 0.0 0.0 0.00 0.00 0.00
20220523024409 8 157 0.0 1.6 0.00 0.00 0.00
20220523024009 8 169 0.0 1.6 0.00 0.00 0.00
20220523023603 8 180 0.0 1.6 0.00 0.00 0.00
20220523023155 8 168 1.6 4.8 0.00 0.00 0.00